First Clarity — A8RM8 — position and weather

sailwx.info

Track history (hours):
 
Tides and Currents Weather Stations Pressure Air Temp Water Temp Dewpoint Dewpoint Depression Visibility Wind Speed Wind Dir Waves Ship Positions

First Clarity

Last reported at 2015-May-25 23:05 UTC. Time now 2015-May-27 17:51 UTC.
Position N 33°33' E 129°13'.

Length 104 m; draft 4.8 m.

Type: Cargo ship. MMSI: 636014129.

Date/timePositionNaut miles runAvg speedWind from/ knotsBaromVisibWave heightAir tempDewpointWater temp
2015-May-25 23:05N 33°33' E 129°13'610.4
2015-May-25 22:33N 33°39' E 129°12'9 9.1
2015-May-25 21:33N 33°48' E 129°11'2 2.0
2015-May-25 20:20N 33°45' E 129°11'2 1.2
2015-May-25 18:32N 33°43' E 129°10'1 0.9
2015-May-25 17:32N 33°42' E 129°10'1 0.4
2015-May-25 15:20N 33°42' E 129°11'0 0.1
2015-May-25 13:26N 33°42' E 129°11'1 0.5
2015-May-25 12:17N 33°42' E 129°10'1 0.7
2015-May-25 10:32N 33°43' E 129°09'7 7.1
2015-May-25 09:33N 33°43' E 129°17'1 1.1
2015-May-25 08:31N 33°44' E 129°16'2 1.3
2015-May-25 07:19N 33°44' E 129°15'1 1.2
2015-May-25 06:31N 33°44' E 129°14'1 1.3
2015-May-25 05:31N 33°44' E 129°12'1 1.1
2015-May-25 04:31N 33°44' E 129°11'1 1.1
2015-May-25 03:25N 33°44' E 129°09'1 0.9
2015-May-25 02:13N 33°44' E 129°08'1 0.9
2015-May-25 01:31N 33°43' E 129°07'1 0.8
2015-May-25 00:28N 33°43' E 129°07'2 0.9
2015-May-24 22:31N 33°42' E 129°05'1 1.3
2015-May-24 21:31N 33°41' E 129°04'5 5.2
2015-May-24 20:33N 33°37' E 129°07'2610.8
2015-May-24 18:08N 33°36' E 129°39'610.9
2015-May-24 17:33N 33°39' E 129°46'1110.9
2015-May-24 16:33N 33°43' E 129°58'1111.4
2015-May-24 15:33N 33°49' E 130°09'1211.5
2015-May-24 14:31N 33°56' E 130°21'2211.0
2015-May-24 12:32N 34°03' E 130°46'  
Track history (hours):
 
Tides and Currents Weather Stations Pressure Air Temp Water Temp Dewpoint Dewpoint Depression Visibility Wind Speed Wind Dir Waves Ship Positions

First Clarity

Last reported at 2015-May-25 23:05 UTC. Time now 2015-May-27 17:51 UTC.
Position N 33°33' E 129°13'.

Length 104 m; draft 4.8 m.

Type: Cargo ship. MMSI: 636014129.

Date/timePositionNaut miles runAvg speedWind from/ knotsBaromVisibWave heightAir tempDewpointWater temp
2015-May-25 23:05N 33°33' E 129°13'610.4
2015-May-25 22:33N 33°39' E 129°12'9 9.1
2015-May-25 21:33N 33°48' E 129°11'2 2.0
2015-May-25 20:20N 33°45' E 129°11'2 1.2
2015-May-25 18:32N 33°43' E 129°10'1 0.9
2015-May-25 17:32N 33°42' E 129°10'1 0.4
2015-May-25 15:20N 33°42' E 129°11'0 0.1
2015-May-25 13:26N 33°42' E 129°11'1 0.5
2015-May-25 12:17N 33°42' E 129°10'1 0.7
2015-May-25 10:32N 33°43' E 129°09'7 7.1
2015-May-25 09:33N 33°43' E 129°17'1 1.1
2015-May-25 08:31N 33°44' E 129°16'2 1.3
2015-May-25 07:19N 33°44' E 129°15'1 1.2
2015-May-25 06:31N 33°44' E 129°14'1 1.3
2015-May-25 05:31N 33°44' E 129°12'1 1.1
2015-May-25 04:31N 33°44' E 129°11'1 1.1
2015-May-25 03:25N 33°44' E 129°09'1 0.9
2015-May-25 02:13N 33°44' E 129°08'1 0.9
2015-May-25 01:31N 33°43' E 129°07'1 0.8
2015-May-25 00:28N 33°43' E 129°07'2 0.9
2015-May-24 22:31N 33°42' E 129°05'1 1.3
2015-May-24 21:31N 33°41' E 129°04'5 5.2
2015-May-24 20:33N 33°37' E 129°07'2610.8
2015-May-24 18:08N 33°36' E 129°39'610.9
2015-May-24 17:33N 33°39' E 129°46'1110.9
2015-May-24 16:33N 33°43' E 129°58'1111.4
2015-May-24 15:33N 33°49' E 130°09'1211.5
2015-May-24 14:31N 33°56' E 130°21'2211.0
2015-May-24 12:32N 34°03' E 130°46'  

Dump ship's entire track history